South Lyme, Connecticut
Current Conditions -  °F | °C
As of 2:56 PM on Saturday 20 Dec 2014 (Local Time) from KGON Reporting Station
Overcast Overcast  
Wind Chill: 27°   Ceiling: 3400
Heat Index: 33°   Visibility: 8mi
Dew Point: 26°   Wind: 7mph
Humidity: 75%   Direction: 340°NNW
Pressure: 30.24"   Gusts: NA
Location:  41.31°N, 72.26°W
Report Text: KGON 201956Z 34006KT 8SM OVC034 01/M03 A3024 RMK AO2 SLP240 T00061033
Loading
Personal Weather Stations






























Interactive Weather Map New forecast layout! Learn more

10-Day Weather Forecast

Advertisements
Track Severe Weather on mobile